Weather at Sabaneta Airport

Public forecast

Using degrees Celsius for public forecast. Weather courtesy of forecast.io.

Closest aviation weather report (METAR) to Sabaneta Airport

Closest report is Guanare Airport, 19.4 nm (36.0 km) NNE.

2024/07/21 06:03 (retrieved 45 minutes ago)

SVGU 210603Z AUTO ///01KT NCD ///// Q1017

Closest aviation forecast (TAF) to Sabaneta Airport

Forecast is more than 12 hours old.

Closest forecast is Arturo Michelena International Airport, 144.7 nm (268.0 km) NE.

2024/07/20 12:57 (retrieved 18 hours ago)

TAF SVVA 201000Z 2012/2112 11003KT 9999 BKN016 TX31/2018 TN21/2109 TEMPO 2016/2020 04005KT 9999 SCT016 TEMPO 2023/2103 22004KT 9999 BKN016